createdAt,value
2023-02-11T00:00:33.690Z,101252.04
2023-02-11T00:06:01.501Z,101214.39
2023-02-11T00:11:04.990Z,101189.95
2023-02-11T00:16:10.842Z,101175.27
2023-02-11T00:21:18.133Z,101172.48
2023-02-11T00:26:27.419Z,101149.87
2023-02-11T00:31:31.120Z,101132.88
2023-02-11T00:36:34.235Z,101137.45
2023-02-11T00:41:37.461Z,101144.61
2023-02-11T00:46:40.702Z,101132.94
2023-02-11T00:51:43.656Z,101116.02
2023-02-11T00:56:46.575Z,101099.96
2023-02-11T01:01:49.648Z,101081.25
2023-02-11T01:06:53.383Z,101068.95
2023-02-11T01:11:56.386Z,101053.30
2023-02-11T01:16:59.702Z,101028.60
2023-02-11T01:22:03.429Z,100996.74
2023-02-11T01:27:06.743Z,100995.19
2023-02-11T01:32:09.897Z,100971.59
2023-02-11T01:37:13.967Z,100963.96
2023-02-11T01:42:21.061Z,100963.08
2023-02-11T01:47:24.069Z,100958.56
2023-02-11T01:52:36.181Z,100956.87
2023-02-11T01:57:42.335Z,100949.30
2023-02-11T02:03:01.027Z,100951.91
2023-02-11T02:08:29.740Z,100953.12
2023-02-11T02:13:34.793Z,100937.20
2023-02-11T02:19:02.309Z,100923.41
2023-02-11T02:24:39.766Z,100914.92
2023-02-11T02:30:01.308Z,100912.09
2023-02-11T02:35:26.027Z,100895.38
2023-02-11T02:40:51.139Z,100872.73
2023-02-11T02:45:54.460Z,100854.29
2023-02-11T02:51:40.676Z,100838.19
2023-02-11T02:57:12.860Z,100825.09
2023-02-11T03:02:59.381Z,100823.60
2023-02-11T03:08:27.270Z,100814.11
2023-02-11T03:13:34.832Z,100802.83
2023-02-11T03:18:41.976Z,100786.97
2023-02-11T03:23:53.279Z,100781.54
2023-02-11T03:29:10.409Z,100760.05
2023-02-11T03:34:22.833Z,100744.89
2023-02-11T03:39:32.303Z,100737.13
2023-02-11T03:44:40.311Z,100738.34
2023-02-11T03:49:45.639Z,100733.34
2023-02-11T03:54:54.887Z,100732.61
2023-02-11T03:59:59.861Z,100734.67
2023-02-11T04:05:04.554Z,100722.28
2023-02-11T04:10:08.840Z,100715.70
2023-02-11T04:15:12.047Z,100702.30
2023-02-11T04:20:15.156Z,100690.79
2023-02-11T04:25:19.907Z,100680.35
2023-02-11T04:30:23.317Z,100667.98
2023-02-11T04:35:26.622Z,100656.19
2023-02-11T04:40:29.859Z,100655.69
2023-02-11T04:45:33.755Z,100638.79
2023-02-11T04:50:36.865Z,100635.29
2023-02-11T04:55:39.965Z,100629.32
2023-02-11T05:00:43.080Z,100625.10
2023-02-11T05:05:46.382Z,100618.29
2023-02-11T05:10:49.687Z,100609.84
2023-02-11T05:15:53.746Z,100606.95
2023-02-11T05:20:57.026Z,100595.64
2023-02-11T05:26:00.338Z,100583.80
2023-02-11T05:31:04.535Z,100580.90
2023-02-11T05:36:10.447Z,100574.73
2023-02-11T05:41:13.852Z,100559.38
2023-02-11T05:46:18.288Z,100544.34
2023-02-11T05:51:21.498Z,100538.48
2023-02-11T05:56:24.701Z,100539.21
2023-02-11T06:01:28.237Z,100529.95
2023-02-11T06:06:31.540Z,100532.70
2023-02-11T06:11:34.840Z,100525.71
2023-02-11T06:16:38.772Z,100514.80
2023-02-11T06:21:44.284Z,100518.65
2023-02-11T06:26:47.737Z,100508.81
2023-02-11T06:31:51.191Z,100514.27
2023-02-11T06:36:54.460Z,100504.23
2023-02-11T06:41:57.681Z,100497.60
2023-02-11T06:47:00.772Z,100496.21
2023-02-11T06:52:04.289Z,100500.50
2023-02-11T06:57:07.187Z,100497.80
2023-02-11T07:02:11.194Z,100471.08
2023-02-11T07:07:14.427Z,100454.48
2023-02-11T07:12:17.641Z,100454.20
2023-02-11T07:17:20.759Z,100462.63
2023-02-11T07:22:23.949Z,100451.09
2023-02-11T07:27:27.154Z,100450.31
2023-02-11T07:32:30.673Z,100455.84
2023-02-11T07:37:35.375Z,100463.44
2023-02-11T07:42:40.565Z,100469.56
2023-02-11T07:47:43.773Z,100478.67
2023-02-11T07:52:46.878Z,100467.93
2023-02-11T07:57:51.108Z,100452.35
2023-02-11T08:02:54.113Z,100452.09
2023-02-11T08:07:57.117Z,100443.93
2023-02-11T08:13:00.219Z,100420.27
2023-02-11T08:18:03.431Z,100418.47
2023-02-11T08:23:08.169Z,100422.86
2023-02-11T08:28:11.460Z,100435.02
2023-02-11T08:33:14.997Z,100423.80
2023-02-11T08:38:17.893Z,100418.90
2023-02-11T08:43:20.996Z,100431.51
2023-02-11T08:48:24.206Z,100419.07
2023-02-11T08:53:27.417Z,100399.23
2023-02-11T08:58:30.723Z,100392.71
2023-02-11T09:03:33.836Z,100407.17
2023-02-11T09:08:45.286Z,100390.70
2023-02-11T09:13:50.504Z,100398.61
2023-02-11T09:18:57.698Z,100373.80
2023-02-11T09:24:00.800Z,100365.14
2023-02-11T09:29:05.374Z,100355.92
2023-02-11T09:34:09.155Z,100345.27
2023-02-11T09:39:17.199Z,100357.69
2023-02-11T09:45:20.598Z,100377.81
2023-02-11T11:06:53.773Z,100297.39
2023-02-11T11:11:58.109Z,100299.20
2023-02-11T11:17:01.430Z,100297.84
2023-02-11T11:22:05.655Z,100315.41
2023-02-11T11:27:19.851Z,100331.71
2023-02-11T11:32:28.318Z,100333.27
2023-02-11T11:37:35.445Z,100329.11
2023-02-11T11:42:40.464Z,100335.02
2023-02-11T11:47:52.405Z,100337.85
2023-02-11T11:53:19.675Z,100338.23
2023-02-11T11:58:24.013Z,100352.08
2023-02-11T13:07:40.328Z,100367.80
2023-02-11T13:13:07.391Z,100383.77
2023-02-11T13:18:49.717Z,100393.52
2023-02-11T13:24:03.165Z,100403.20
2023-02-11T13:29:06.268Z,100408.98
2023-02-11T13:34:43.636Z,100417.46
2023-02-11T13:40:34.092Z,100423.48
2023-02-11T13:45:43.612Z,100429.92
2023-02-11T13:50:51.647Z,100429.90
2023-02-11T13:56:09.418Z,100439.39
2023-02-11T14:02:07.577Z,100449.48
2023-02-11T14:07:50.357Z,100456.42
2023-02-11T14:13:30.629Z,100463.27
2023-02-11T14:18:58.217Z,100477.13
2023-02-11T14:24:13.179Z,100488.48
2023-02-11T14:29:24.570Z,100495.81
2023-02-11T14:34:55.042Z,100506.17
2023-02-11T14:40:11.721Z,100521.19
2023-02-11T14:45:29.370Z,100531.17
2023-02-11T14:50:40.507Z,100541.20
2023-02-11T14:55:48.619Z,100551.09
2023-02-11T15:01:28.230Z,100563.41
2023-02-11T15:06:37.568Z,100560.23
2023-02-11T15:11:45.247Z,100567.86
2023-02-11T15:16:49.186Z,100583.14
2023-02-11T15:21:53.725Z,100588.61
2023-02-11T15:27:13.219Z,100600.89
2023-02-11T15:32:22.075Z,100613.59
2023-02-11T15:37:29.892Z,100635.23
2023-02-11T15:42:47.222Z,100647.05
2023-02-11T15:48:06.278Z,100657.20
2023-02-11T15:53:41.225Z,100677.37
2023-02-11T15:58:48.219Z,100687.30
2023-02-11T16:03:51.512Z,100701.28
2023-02-11T16:09:07.050Z,100712.70
2023-02-11T16:14:37.588Z,100731.23
2023-02-11T16:19:49.504Z,100746.17
2023-02-11T16:24:56.123Z,100756.80
2023-02-11T16:29:59.511Z,100772.83
2023-02-11T16:35:13.980Z,100782.73
2023-02-11T16:40:17.880Z,100796.52
2023-02-11T16:45:22.920Z,100809.13
2023-02-11T16:50:26.830Z,100814.57
2023-02-11T16:55:30.393Z,100821.02
2023-02-11T17:00:33.757Z,100839.09
2023-02-11T17:05:53.161Z,100850.70
2023-02-11T17:10:59.382Z,100864.24
2023-02-11T17:16:03.138Z,100868.11
2023-02-11T17:21:08.037Z,100876.34
2023-02-11T17:26:12.903Z,100895.39
2023-02-11T17:31:16.708Z,100911.48
2023-02-11T17:36:20.118Z,100931.91
2023-02-11T17:41:23.526Z,100952.33
2023-02-11T17:46:29.630Z,100977.67
2023-02-11T17:51:35.866Z,100992.64
2023-02-11T17:56:40.677Z,101004.84
2023-02-11T18:01:52.951Z,101019.84
2023-02-11T18:06:57.905Z,101035.75
2023-02-11T18:12:01.618Z,101046.41
2023-02-11T18:17:05.233Z,101056.26
2023-02-11T18:22:09.986Z,101074.56
2023-02-11T18:27:13.602Z,101088.15
2023-02-11T18:32:17.014Z,101098.80
2023-02-11T18:37:20.738Z,101106.54
2023-02-11T18:42:24.252Z,101127.70
2023-02-11T18:47:27.765Z,101133.96
2023-02-11T18:52:32.983Z,101149.02
2023-02-11T18:57:36.234Z,101163.42
2023-02-11T19:02:40.051Z,101180.02
2023-02-11T19:07:43.772Z,101193.36
2023-02-11T19:12:47.186Z,101215.27
2023-02-11T19:17:52.027Z,101225.64
2023-02-11T19:22:55.547Z,101238.40
2023-02-11T19:27:58.663Z,101256.96
2023-02-11T19:33:02.062Z,101271.43
2023-02-11T19:38:05.658Z,101286.04
2023-02-11T19:43:09.298Z,101296.77
2023-02-11T19:48:14.817Z,101314.88
2023-02-11T19:53:17.944Z,101326.70
2023-02-11T19:58:21.454Z,101334.08
2023-02-11T20:03:25.311Z,101343.18
2023-02-11T20:08:28.721Z,101359.10
2023-02-11T20:13:31.930Z,101381.92
2023-02-11T20:18:36.646Z,101395.64
2023-02-11T20:23:40.906Z,101404.40
2023-02-11T20:28:45.440Z,101405.61
2023-02-11T20:33:49.506Z,101417.55
2023-02-11T20:38:54.419Z,101431.04
2023-02-11T20:44:00.271Z,101442.33
2023-02-11T20:49:03.597Z,101444.05
2023-02-11T20:54:07.724Z,101453.42
2023-02-11T20:59:14.077Z,101463.16
2023-02-11T21:04:20.666Z,101474.94
2023-02-11T21:09:26.774Z,101486.98
2023-02-11T21:14:31.504Z,101500.94
2023-02-11T21:19:34.626Z,101511.58
2023-02-11T21:24:38.042Z,101509.38
2023-02-11T21:29:53.526Z,101514.36
2023-02-11T21:34:59.502Z,101527.14
2023-02-11T21:40:05.283Z,101537.21
2023-02-11T21:45:10.181Z,101548.39
2023-02-11T21:50:14.363Z,101549.80
2023-02-11T21:55:17.777Z,101557.86
2023-02-11T22:00:21.188Z,101579.23
2023-02-11T22:05:24.573Z,101582.94
2023-02-11T22:10:27.706Z,101588.30
2023-02-11T22:15:31.582Z,101594.27
2023-02-11T22:20:34.737Z,101601.50
2023-02-11T22:25:38.154Z,101610.28
2023-02-11T22:30:41.900Z,101616.55
2023-02-11T22:35:46.000Z,101631.10
2023-02-11T22:40:49.197Z,101644.42
2023-02-11T22:45:52.692Z,101655.16
2023-02-11T22:50:56.430Z,101662.48
2023-02-11T22:56:07.313Z,101677.13
2023-02-11T23:01:10.527Z,101679.59
2023-02-11T23:06:14.041Z,101674.64
2023-02-11T23:11:29.451Z,101677.73
2023-02-11T23:16:34.441Z,101680.67
2023-02-11T23:21:39.448Z,101695.80
2023-02-11T23:26:44.597Z,101698.10
2023-02-11T23:31:50.010Z,101699.58
2023-02-11T23:36:53.783Z,101702.98
2023-02-11T23:41:59.241Z,101717.63
2023-02-11T23:47:02.353Z,101715.00
2023-02-11T23:52:05.552Z,101732.80
2023-02-11T23:57:08.702Z,101746.06
